createdAt,value
2022-09-12T00:01:20.210Z,15.40
2022-09-12T00:03:47.760Z,15.30
2022-09-12T00:06:29.394Z,15.40
2022-09-12T00:09:00.397Z,15.30
2022-09-12T00:11:27.736Z,15.30
2022-09-12T00:14:00.867Z,15.30
2022-09-12T00:16:30.653Z,15.30
2022-09-12T00:18:57.792Z,15.30
2022-09-12T00:21:24.528Z,15.30
2022-09-12T00:23:51.889Z,15.30
2022-09-12T00:26:20.894Z,15.20
2022-09-12T00:28:48.701Z,15.30
2022-09-12T00:31:23.738Z,15.20
2022-09-12T00:33:51.839Z,15.20
2022-09-12T00:36:22.471Z,15.20
2022-09-12T00:38:51.100Z,15.10
2022-09-12T00:41:19.488Z,15.10
2022-09-12T00:43:54.062Z,15.10
2022-09-12T00:46:38.946Z,15.10
2022-09-12T00:49:19.937Z,15.10
2022-09-12T00:52:10.429Z,15.10
2022-09-12T00:54:56.448Z,15.00
2022-09-12T00:57:35.026Z,15.00
2022-09-12T01:00:16.546Z,15.00
2022-09-12T01:02:46.720Z,15.00
2022-09-12T01:05:14.196Z,14.90
2022-09-12T01:07:42.638Z,14.90
2022-09-12T01:10:11.254Z,14.90
2022-09-12T01:12:41.092Z,14.90
2022-09-12T01:15:08.817Z,14.90
2022-09-12T01:18:15.611Z,14.90
2022-09-12T01:21:12.760Z,14.90
2022-09-12T01:24:46.830Z,14.90
2022-09-12T01:27:45.641Z,14.80
2022-09-12T01:30:46.259Z,14.80
2022-09-12T01:33:52.852Z,14.80
2022-09-12T01:36:36.259Z,14.80
2022-09-12T01:39:32.523Z,14.80
2022-09-12T01:42:51.391Z,14.70
2022-09-12T01:45:32.443Z,14.70
2022-09-12T01:48:14.293Z,14.70
2022-09-12T01:50:56.564Z,14.70
2022-09-12T01:53:32.876Z,14.70
2022-09-12T01:56:22.272Z,14.60
2022-09-12T01:59:19.072Z,14.60
2022-09-12T02:02:01.187Z,14.50
2022-09-12T02:04:46.142Z,14.50
2022-09-12T02:07:24.851Z,14.50
2022-09-12T02:10:17.295Z,14.50
2022-09-12T02:12:52.185Z,14.50
2022-09-12T02:15:27.351Z,14.50
2022-09-12T02:17:58.168Z,14.50
2022-09-12T02:20:48.433Z,14.50
2022-09-12T02:23:30.836Z,14.40
2022-09-12T02:26:08.526Z,14.40
2022-09-12T02:28:41.386Z,14.40
2022-09-12T02:31:40.155Z,14.40
2022-09-12T02:34:21.921Z,14.30
2022-09-12T02:37:09.240Z,14.40
2022-09-12T02:39:36.830Z,14.40
2022-09-12T02:42:04.842Z,14.30
2022-09-12T02:44:33.973Z,14.30
2022-09-12T02:47:16.884Z,14.30
2022-09-12T02:49:44.125Z,14.30
2022-09-12T02:52:11.016Z,14.30
2022-09-12T02:54:38.312Z,14.30
2022-09-12T02:57:22.808Z,14.30
2022-09-12T02:59:56.954Z,14.30
2022-09-12T03:03:03.820Z,14.30
2022-09-12T03:05:47.157Z,14.30
2022-09-12T03:08:32.100Z,14.40
2022-09-12T03:11:26.455Z,14.30
2022-09-12T03:14:31.639Z,14.30
2022-09-12T03:17:50.567Z,14.30
2022-09-12T03:20:42.611Z,14.30
2022-09-12T03:23:51.622Z,14.30
2022-09-12T03:26:56.488Z,14.30
2022-09-12T03:29:26.600Z,14.20
2022-09-12T03:31:58.457Z,14.20
2022-09-12T03:34:27.607Z,14.20
2022-09-12T03:36:55.404Z,14.30
2022-09-12T03:39:27.821Z,14.30
2022-09-12T03:41:56.120Z,14.20
2022-09-12T03:44:24.342Z,14.20
2022-09-12T03:46:51.404Z,14.20
2022-09-12T03:49:18.507Z,14.20
2022-09-12T03:51:45.262Z,14.20
2022-09-12T03:54:12.329Z,14.20
2022-09-12T03:56:40.263Z,14.20
2022-09-12T03:59:07.838Z,14.20
2022-09-12T04:01:35.024Z,14.20
2022-09-12T04:04:02.010Z,14.30
2022-09-12T04:06:29.636Z,14.30
2022-09-12T04:08:56.394Z,14.30
2022-09-12T04:11:23.771Z,14.30
2022-09-12T04:13:50.634Z,14.30
2022-09-12T04:16:18.571Z,14.40
2022-09-12T04:18:46.831Z,14.40
2022-09-12T04:21:17.972Z,14.40
2022-09-12T04:23:45.543Z,14.40
2022-09-12T04:26:13.896Z,14.50
2022-09-12T04:28:41.778Z,14.40
2022-09-12T04:31:27.196Z,14.40
2022-09-12T04:33:59.686Z,14.40
2022-09-12T04:36:29.247Z,14.40
2022-09-12T04:38:56.486Z,14.40
2022-09-12T04:41:27.567Z,14.50
2022-09-12T04:44:04.610Z,14.50
2022-09-12T04:46:38.677Z,14.50
2022-09-12T04:49:06.102Z,14.50
2022-09-12T04:51:36.393Z,14.50
2022-09-12T04:54:08.278Z,14.60
2022-09-12T04:56:39.832Z,14.60
2022-09-12T04:59:08.599Z,14.60
2022-09-12T05:01:36.073Z,14.60
2022-09-12T05:04:04.140Z,14.60
2022-09-12T05:06:34.703Z,14.60
2022-09-12T05:09:04.988Z,14.50
2022-09-12T05:12:02.660Z,14.60
2022-09-12T05:14:22.859Z,14.60
2022-09-12T05:16:49.885Z,14.60
2022-09-12T05:19:17.275Z,14.60
2022-09-12T05:21:44.274Z,14.60
2022-09-12T05:24:11.599Z,14.60
2022-09-12T05:26:38.787Z,14.60
2022-09-12T05:29:06.972Z,14.60
2022-09-12T05:31:34.748Z,14.60
2022-09-12T05:34:01.721Z,14.60
2022-09-12T05:36:30.755Z,14.60
2022-09-12T05:38:59.759Z,14.60
2022-09-12T05:41:33.765Z,14.60
2022-09-12T05:44:04.672Z,14.50
2022-09-12T05:46:37.032Z,14.50
2022-09-12T05:49:07.012Z,14.50
2022-09-12T05:51:38.058Z,14.50
2022-09-12T05:54:07.564Z,14.50
2022-09-12T05:56:39.583Z,14.50
2022-09-12T05:59:19.804Z,14.60
2022-09-12T06:01:48.394Z,14.50
2022-09-12T06:04:15.775Z,14.60
2022-09-12T06:06:45.334Z,14.60
2022-09-12T06:09:14.946Z,14.60
2022-09-12T06:11:42.576Z,14.70
2022-09-12T06:14:12.304Z,14.70
2022-09-12T06:16:40.011Z,14.80
2022-09-12T06:19:28.012Z,14.90
2022-09-12T06:21:55.305Z,14.90
2022-09-12T06:24:22.424Z,14.90
2022-09-12T06:26:52.510Z,15.10
2022-09-12T06:29:19.571Z,15.30
2022-09-12T06:31:47.058Z,15.30
2022-09-12T06:34:16.515Z,15.40
2022-09-12T06:36:47.127Z,15.50
2022-09-12T06:39:17.546Z,15.70
2022-09-12T06:41:45.070Z,15.70
2022-09-12T06:44:20.843Z,15.80
2022-09-12T06:46:48.173Z,15.90
2022-09-12T06:49:15.297Z,16.10
2022-09-12T06:51:42.558Z,16.20
2022-09-12T06:54:13.864Z,16.40
2022-09-12T06:56:40.950Z,16.50
2022-09-12T06:59:07.740Z,16.50
2022-09-12T07:01:34.535Z,16.60
2022-09-12T07:04:04.150Z,16.70
2022-09-12T07:06:40.607Z,16.70
2022-09-12T07:09:12.343Z,16.80
2022-09-12T07:11:41.554Z,16.80
2022-09-12T07:14:12.832Z,16.90
2022-09-12T07:16:40.020Z,16.90
2022-09-12T07:19:08.851Z,16.90
2022-09-12T07:21:39.512Z,16.90
2022-09-12T07:24:09.412Z,17.00
2022-09-12T07:26:36.864Z,17.10
2022-09-12T07:29:25.540Z,17.20
2022-09-12T07:31:51.777Z,17.20
2022-09-12T07:34:18.525Z,17.30
2022-09-12T07:36:45.273Z,17.30
2022-09-12T07:39:12.233Z,17.30
2022-09-12T07:41:39.131Z,17.40
2022-09-12T07:44:08.635Z,17.50
2022-09-12T07:46:35.424Z,17.50
2022-09-12T07:49:02.928Z,17.50
2022-09-12T07:51:31.542Z,17.60
2022-09-12T07:53:58.942Z,17.60
2022-09-12T07:56:31.228Z,17.60
2022-09-12T07:58:59.552Z,17.80
2022-09-12T08:01:26.863Z,17.80
2022-09-12T08:03:57.838Z,17.80
2022-09-12T08:06:27.623Z,17.80
2022-09-12T08:08:58.014Z,17.90
2022-09-12T08:11:27.988Z,18.00
2022-09-12T08:13:57.520Z,18.00
2022-09-12T08:16:30.139Z,18.10
2022-09-12T08:18:57.710Z,18.20
2022-09-12T08:21:28.080Z,18.30
2022-09-12T08:24:01.954Z,18.40
2022-09-12T08:26:30.319Z,18.50
2022-09-12T08:28:57.250Z,18.60
2022-09-12T08:31:26.810Z,18.60
2022-09-12T08:33:57.453Z,18.70
2022-09-12T08:36:27.301Z,18.80
2022-09-12T08:39:01.629Z,18.80
2022-09-12T08:41:44.211Z,18.90
2022-09-12T08:44:27.392Z,18.90
2022-09-12T08:47:33.776Z,19.00
2022-09-12T08:50:09.754Z,19.10
2022-09-12T08:53:03.338Z,19.20
2022-09-12T08:55:44.416Z,19.20
2022-09-12T08:58:14.617Z,19.30
2022-09-12T09:00:59.316Z,19.30
2022-09-12T09:04:12.700Z,19.40
2022-09-12T09:07:20.500Z,19.50
2022-09-12T09:10:28.367Z,19.60
2022-09-12T09:13:49.741Z,19.60
2022-09-12T09:16:27.625Z,19.70
2022-09-12T09:18:58.180Z,19.80
2022-09-12T09:21:31.651Z,19.90
2022-09-12T09:24:10.033Z,20.00
2022-09-12T09:27:41.644Z,20.00
2022-09-12T09:30:16.798Z,20.00
2022-09-12T09:32:51.231Z,20.20
2022-09-12T09:35:38.383Z,20.40
2022-09-12T09:38:43.954Z,20.50
2022-09-12T09:41:39.852Z,20.70
2022-09-12T09:46:34.578Z,20.90
2022-09-12T09:49:03.709Z,20.90
2022-09-12T09:51:37.445Z,21.00
2022-09-12T09:54:29.345Z,21.10
2022-09-12T09:56:56.345Z,21.20
2022-09-12T09:59:29.776Z,21.30
2022-09-12T10:02:03.957Z,21.50
2022-09-12T10:04:39.199Z,21.50
2022-09-12T10:07:19.683Z,21.60
2022-09-12T10:10:17.588Z,21.50
2022-09-12T10:12:45.302Z,21.60
2022-09-12T10:15:27.832Z,21.60
2022-09-12T10:17:56.520Z,21.70
2022-09-12T10:20:33.342Z,21.60
2022-09-12T10:23:23.466Z,21.70
2022-09-12T10:25:57.514Z,21.70
2022-09-12T10:28:37.288Z,21.90
2022-09-12T10:31:06.885Z,21.90
2022-09-12T10:33:52.629Z,22.00
2022-09-12T10:36:21.751Z,21.80
2022-09-12T10:38:57.144Z,22.00
2022-09-12T10:41:24.624Z,22.10
2022-09-12T10:43:51.579Z,22.00
2022-09-12T10:46:18.333Z,21.80
2022-09-12T10:48:50.421Z,21.80
2022-09-12T10:51:28.399Z,21.80
2022-09-12T10:54:03.352Z,22.00
2022-09-12T10:57:03.927Z,22.20
2022-09-12T10:59:52.169Z,22.40
2022-09-12T11:02:30.164Z,22.40
2022-09-12T11:05:08.115Z,22.40
2022-09-12T11:07:55.374Z,22.50
2022-09-12T11:10:49.520Z,22.40
2022-09-12T11:13:44.567Z,22.70
2022-09-12T11:16:42.819Z,22.70
2022-09-12T11:19:38.286Z,22.90
2022-09-12T11:22:40.543Z,22.60
2022-09-12T11:25:28.228Z,22.70
2022-09-12T11:28:15.872Z,22.70
2022-09-12T11:31:07.622Z,22.80
2022-09-12T11:33:50.038Z,22.90
2022-09-12T11:37:08.631Z,22.80
2022-09-12T11:39:43.336Z,23.00
2022-09-12T11:42:21.081Z,22.90
2022-09-12T11:44:58.208Z,23.10
2022-09-12T11:47:28.729Z,23.10
2022-09-12T11:49:58.192Z,23.00
2022-09-12T11:52:33.558Z,22.90
2022-09-12T11:55:15.704Z,22.90
2022-09-12T11:57:56.746Z,23.10
2022-09-12T12:00:36.659Z,23.00
2022-09-12T12:03:30.725Z,23.00
2022-09-12T12:06:38.218Z,23.10
2022-09-12T12:09:05.643Z,23.10
2022-09-12T12:11:57.602Z,22.90
2022-09-12T12:14:44.471Z,23.00
2022-09-12T12:17:21.868Z,23.20
2022-09-12T12:20:04.981Z,23.00
2022-09-12T12:22:34.722Z,23.10
2022-09-12T12:25:37.402Z,23.30
2022-09-12T12:28:06.304Z,23.40
2022-09-12T12:30:33.499Z,23.40
2022-09-12T12:33:07.184Z,23.40
2022-09-12T12:35:47.647Z,23.30
2022-09-12T12:38:34.374Z,23.10
2022-09-12T12:41:19.295Z,23.30
2022-09-12T12:43:56.260Z,23.40
2022-09-12T12:46:26.572Z,23.50
2022-09-12T12:49:17.683Z,23.60
2022-09-12T12:51:53.515Z,23.40
2022-09-12T12:54:41.047Z,23.50
2022-09-12T12:57:47.064Z,23.50
2022-09-12T13:00:29.720Z,23.60
2022-09-12T13:03:08.193Z,23.50
2022-09-12T13:05:46.164Z,23.40
2022-09-12T13:08:18.678Z,23.50
2022-09-12T13:10:57.938Z,23.50
2022-09-12T13:13:52.022Z,23.60
2022-09-12T13:16:36.911Z,23.60
2022-09-12T13:19:19.233Z,23.40
2022-09-12T13:22:15.693Z,23.70
2022-09-12T13:24:49.117Z,23.70
2022-09-12T13:27:20.935Z,23.60
2022-09-12T13:29:48.074Z,23.40
2022-09-12T13:32:17.755Z,23.40
2022-09-12T13:35:13.228Z,23.30
2022-09-12T13:38:40.983Z,23.40
2022-09-12T13:41:45.388Z,23.50
2022-09-12T13:44:17.863Z,23.40
2022-09-12T13:46:45.355Z,23.50
2022-09-12T13:49:33.115Z,23.50
2022-09-12T13:52:30.235Z,23.40
2022-09-12T13:55:00.395Z,23.60
2022-09-12T13:57:38.715Z,23.50
2022-09-12T14:00:19.560Z,23.60
2022-09-12T14:02:50.078Z,23.50
2022-09-12T14:05:25.813Z,23.50
2022-09-12T14:08:06.880Z,23.60
2022-09-12T14:10:37.749Z,23.40
2022-09-12T14:13:18.552Z,23.50
2022-09-12T14:15:49.513Z,23.40
2022-09-12T14:18:36.570Z,23.20
2022-09-12T14:21:34.069Z,23.40
2022-09-12T14:24:04.679Z,23.50
2022-09-12T14:26:36.681Z,23.50
2022-09-12T14:29:07.079Z,23.60
2022-09-12T14:31:39.231Z,23.50
2022-09-12T14:34:09.497Z,23.40
2022-09-12T14:36:57.552Z,23.40
2022-09-12T14:39:33.691Z,23.40
2022-09-12T14:42:12.120Z,23.50
2022-09-12T14:44:41.042Z,23.60
2022-09-12T14:47:19.507Z,23.60
2022-09-12T14:49:47.080Z,23.40
2022-09-12T14:52:38.379Z,23.50
2022-09-12T14:55:27.419Z,23.60
2022-09-12T14:58:22.643Z,23.50
2022-09-12T15:01:02.373Z,23.40
2022-09-12T15:03:48.709Z,23.40
2022-09-12T15:06:32.456Z,23.40
2022-09-12T15:09:13.474Z,23.40
2022-09-12T15:11:40.265Z,23.40
2022-09-12T15:14:13.966Z,23.40
2022-09-12T15:16:42.088Z,23.40
2022-09-12T15:19:08.869Z,23.50
2022-09-12T15:21:35.628Z,23.50
2022-09-12T15:24:02.706Z,23.50
2022-09-12T15:26:30.507Z,23.50
2022-09-12T15:28:57.941Z,23.50
2022-09-12T15:31:31.461Z,23.30
2022-09-12T15:34:01.519Z,23.40
2022-09-12T15:36:29.309Z,23.40
2022-09-12T15:38:56.494Z,23.40
2022-09-12T15:41:38.319Z,23.40
2022-09-12T15:44:12.227Z,23.30
2022-09-12T15:46:39.457Z,23.30
2022-09-12T15:49:10.271Z,23.40
2022-09-12T15:51:37.079Z,23.40
2022-09-12T15:54:04.684Z,23.40
2022-09-12T15:56:31.420Z,23.50
2022-09-12T15:59:00.093Z,23.40
2022-09-12T16:01:29.341Z,23.40
2022-09-12T16:03:57.312Z,23.40
2022-09-12T16:06:24.407Z,23.40
2022-09-12T16:08:51.163Z,23.50
2022-09-12T16:11:27.377Z,23.40
2022-09-12T16:13:56.641Z,23.40
2022-09-12T16:16:23.843Z,23.30
2022-09-12T16:18:52.131Z,23.30
2022-09-12T16:21:18.971Z,23.30
2022-09-12T16:23:47.271Z,23.30
2022-09-12T16:26:15.348Z,23.20
2022-09-12T16:28:42.522Z,23.30
2022-09-12T16:31:13.012Z,23.20
2022-09-12T16:33:40.681Z,23.20
2022-09-12T16:36:14.266Z,23.20
2022-09-12T16:38:47.949Z,23.20
2022-09-12T16:41:16.683Z,23.20
2022-09-12T16:43:45.395Z,23.20
2022-09-12T16:46:22.906Z,23.10
2022-09-12T16:48:53.650Z,23.10
2022-09-12T16:51:27.826Z,23.00
2022-09-12T16:53:55.773Z,23.00
2022-09-12T16:56:23.485Z,22.90
2022-09-12T16:58:50.777Z,22.90
2022-09-12T17:01:24.064Z,22.90
2022-09-12T17:03:56.450Z,22.90
2022-09-12T17:06:25.085Z,22.70
2022-09-12T17:08:54.262Z,22.70
2022-09-12T17:11:30.915Z,22.60
2022-09-12T17:14:05.485Z,22.60
2022-09-12T17:16:36.822Z,22.60
2022-09-12T17:19:05.436Z,22.50
2022-09-12T17:21:32.983Z,22.40
2022-09-12T17:23:59.755Z,22.50
2022-09-12T17:26:27.091Z,22.40
2022-09-12T17:28:53.919Z,22.30
2022-09-12T17:31:20.997Z,22.30
2022-09-12T17:33:48.156Z,22.20
2022-09-12T17:36:17.648Z,22.10
2022-09-12T17:38:46.187Z,22.10
2022-09-12T17:41:17.979Z,22.00
2022-09-12T17:43:47.306Z,22.00
2022-09-12T17:46:14.218Z,21.90
2022-09-12T17:48:41.636Z,21.80
2022-09-12T17:51:11.867Z,21.80
2022-09-12T17:53:38.953Z,21.70
2022-09-12T17:56:07.427Z,21.60
2022-09-12T17:58:35.718Z,21.50
2022-09-12T18:01:31.837Z,21.40
2022-09-12T18:04:00.632Z,21.40
2022-09-12T18:06:32.485Z,21.30
2022-09-12T18:09:06.215Z,21.20
2022-09-12T18:11:34.064Z,21.20
2022-09-12T18:14:01.547Z,21.20
2022-09-12T18:16:28.533Z,21.10
2022-09-12T18:18:55.897Z,21.00
2022-09-12T18:21:22.736Z,20.90
2022-09-12T18:23:49.506Z,20.90
2022-09-12T18:26:16.272Z,20.90
2022-09-12T18:28:44.776Z,20.80
2022-09-12T18:31:18.529Z,20.70
2022-09-12T18:33:46.284Z,20.60
2022-09-12T18:36:14.890Z,20.60
2022-09-12T18:38:42.565Z,20.50
2022-09-12T18:41:22.255Z,20.40
2022-09-12T18:43:54.290Z,20.30
2022-09-12T18:46:21.564Z,20.30
2022-09-12T18:48:48.541Z,20.20
2022-09-12T18:51:22.167Z,20.20
2022-09-12T18:53:59.520Z,20.10
2022-09-12T18:56:32.702Z,20.00
2022-09-12T18:59:02.643Z,20.00
2022-09-12T19:01:36.254Z,19.90
2022-09-12T19:04:05.479Z,19.90
2022-09-12T19:06:42.452Z,19.80
2022-09-12T19:09:11.316Z,19.80
2022-09-12T19:11:42.432Z,19.80
2022-09-12T19:14:09.156Z,19.80
2022-09-12T19:16:36.067Z,19.80
2022-09-12T19:19:03.223Z,19.70
2022-09-12T19:21:32.818Z,19.70
2022-09-12T19:24:06.393Z,19.60
2022-09-12T19:26:34.102Z,19.60
2022-09-12T19:29:02.769Z,19.60
2022-09-12T19:31:30.150Z,19.70
2022-09-12T19:34:05.459Z,19.70
2022-09-12T19:36:48.349Z,19.70
2022-09-12T19:39:17.800Z,19.70
2022-09-12T19:41:45.653Z,19.80
2022-09-12T19:44:12.968Z,19.80
2022-09-12T19:46:40.217Z,19.80
2022-09-12T19:49:07.529Z,19.80
2022-09-12T19:51:34.310Z,19.80
2022-09-12T19:54:01.023Z,19.80
2022-09-12T19:56:27.790Z,19.70
2022-09-12T19:58:56.698Z,19.70
2022-09-12T20:01:30.409Z,19.70
2022-09-12T20:03:58.642Z,19.70
2022-09-12T20:06:26.797Z,19.60
2022-09-12T20:08:54.243Z,19.60
2022-09-12T20:11:23.506Z,19.60
2022-09-12T20:13:51.036Z,19.60
2022-09-12T20:16:23.233Z,19.50
2022-09-12T20:18:59.519Z,19.50
2022-09-12T20:21:33.939Z,19.50
2022-09-12T20:24:11.964Z,19.50
2022-09-12T20:26:40.079Z,19.40
2022-09-12T20:29:08.291Z,19.40
2022-09-12T20:31:38.635Z,19.40
2022-09-12T20:34:06.440Z,19.40
2022-09-12T20:36:33.870Z,19.40
2022-09-12T20:39:03.589Z,19.30
2022-09-12T20:41:35.717Z,19.30
2022-09-12T20:44:02.771Z,19.30
2022-09-12T20:46:29.638Z,19.20
2022-09-12T20:48:56.746Z,19.20
2022-09-12T20:51:26.464Z,19.20
2022-09-12T20:53:55.331Z,19.20
2022-09-12T20:56:23.904Z,19.10
2022-09-12T20:58:51.458Z,19.10
2022-09-12T21:01:18.446Z,19.20
2022-09-12T21:03:46.137Z,19.10
2022-09-12T21:06:16.870Z,19.00
2022-09-12T21:08:45.346Z,19.00
2022-09-12T21:11:12.799Z,19.00
2022-09-12T21:13:39.988Z,19.00
2022-09-12T21:16:17.130Z,18.90
2022-09-12T21:18:44.600Z,19.00
2022-09-12T21:21:14.250Z,18.90
2022-09-12T21:23:42.084Z,18.90
2022-09-12T21:26:09.584Z,19.00
2022-09-12T21:28:36.791Z,18.90
2022-09-12T21:31:04.052Z,18.90
2022-09-12T21:33:30.860Z,18.90
2022-09-12T21:36:05.839Z,19.00
2022-09-12T21:38:33.303Z,18.90
2022-09-12T21:41:08.464Z,18.90
2022-09-12T21:43:36.451Z,19.00
2022-09-12T21:46:04.515Z,18.90
2022-09-12T21:48:32.468Z,18.90
2022-09-12T21:50:59.717Z,18.90
2022-09-12T21:53:27.163Z,18.90
2022-09-12T21:55:53.875Z,18.90
2022-09-12T21:58:20.604Z,18.90
2022-09-12T22:00:48.191Z,19.00
2022-09-12T22:03:16.568Z,19.00
2022-09-12T22:05:43.655Z,19.00
2022-09-12T22:08:11.289Z,19.00
2022-09-12T22:10:40.920Z,19.00
2022-09-12T22:13:08.037Z,19.00
2022-09-12T22:15:41.812Z,19.00
2022-09-12T22:18:08.641Z,19.00
2022-09-12T22:20:35.368Z,19.00
2022-09-12T22:23:24.638Z,18.90
2022-09-12T22:25:55.512Z,18.90
2022-09-12T22:28:22.616Z,18.90
2022-09-12T22:30:49.346Z,18.90
2022-09-12T22:33:16.319Z,18.90
2022-09-12T22:35:43.033Z,18.90
2022-09-12T22:38:09.789Z,18.90
2022-09-12T22:40:36.684Z,18.90
2022-09-12T22:43:03.393Z,18.90
2022-09-12T22:45:30.228Z,18.90
2022-09-12T22:48:00.532Z,18.90
2022-09-12T22:50:28.080Z,18.90
2022-09-12T22:52:55.181Z,18.80
2022-09-12T22:55:21.915Z,18.90
2022-09-12T22:57:48.951Z,18.90
2022-09-12T23:00:15.828Z,18.90
2022-09-12T23:02:42.617Z,18.90
2022-09-12T23:05:10.755Z,18.90
2022-09-12T23:07:37.783Z,18.90
2022-09-12T23:10:05.178Z,18.80
2022-09-12T23:12:32.133Z,18.80
2022-09-12T23:14:58.939Z,18.80
2022-09-12T23:17:26.723Z,18.80
2022-09-12T23:19:53.580Z,18.80
2022-09-12T23:22:20.331Z,18.80
2022-09-12T23:24:47.128Z,18.80
2022-09-12T23:27:13.843Z,18.90
2022-09-12T23:29:40.551Z,18.80
2022-09-12T23:32:07.252Z,18.90
2022-09-12T23:34:34.013Z,18.90
2022-09-12T23:37:00.836Z,18.80
2022-09-12T23:39:27.547Z,18.80
2022-09-12T23:41:54.357Z,18.80
2022-09-12T23:44:21.124Z,18.80
2022-09-12T23:46:47.824Z,18.80
2022-09-12T23:49:14.758Z,18.70
2022-09-12T23:51:41.480Z,18.70
2022-09-12T23:54:08.606Z,18.70
2022-09-12T23:56:35.483Z,18.70
2022-09-12T23:59:02.183Z,18.70
